Time;durP1;ratioP1;P1;durP2;ratioP2;P2;SDS_P1;SDS_P2;PMS_P1;PMS_P2;Temp;Humidity;BMP_temperature;BMP_pressure;BME280_temperature;BME280_humidity;BME280_pressure;Samples;Min_cycle;Max_cycle;Signal;HPM_P1;HPM_P2
2022/04/26 03:36:39;;;;;;;7.85;4.40;;;8.70;76.90;;;;;;5009115;28;25133;-68
2022/04/26 03:39:06;;;;;;;4.90;4.40;;;8.70;76.50;;;;;;5008705;28;25067;-67
2022/04/26 03:41:33;;;;;;;7.50;4.30;;;8.70;77.40;;;;;;5007933;28;25140;-68
2022/04/26 03:43:59;;;;;;;9.88;4.38;;;8.70;77.60;;;;;;5005539;28;25057;-67
2022/04/26 03:46:25;;;;;;;8.18;4.18;;;8.70;78.10;;;;;;5022196;28;25057;-70
2022/04/26 03:48:51;;;;;;;8.15;4.57;;;8.70;78.20;;;;;;5008389;28;25149;-68
2022/04/26 03:51:17;;;;;;;7.40;4.88;;;8.60;79.20;;;;;;5003714;28;25060;-69
2022/04/26 03:53:42;;;;;;;11.70;4.43;;;8.60;80.10;;;;;;5005552;28;25176;-67
2022/04/26 03:56:08;;;;;;;6.65;3.97;;;8.60;81.00;;;;;;5007765;28;25148;-66
2022/04/26 03:58:34;;;;;;;8.25;4.28;;;8.70;82.10;;;;;;5007696;28;25078;-68
2022/04/26 04:01:00;;;;;;;7.90;4.78;;;8.70;82.40;;;;;;5007705;28;25074;-67
2022/04/26 04:03:26;;;;;;;10.23;5.10;;;8.60;84.00;;;;;;5008313;28;25144;-67
2022/04/26 04:05:51;;;;;;;6.32;4.63;;;8.60;86.10;;;;;;5007142;28;25167;-68
2022/04/26 04:08:17;;;;;;;9.00;4.43;;;8.70;87.10;;;;;;5007876;28;25099;-67
2022/04/26 04:10:43;;;;;;;11.38;5.30;;;8.60;90.40;;;;;;5017674;28;25053;-67
2022/04/26 04:13:08;;;;;;;10.63;5.63;;;8.60;91.60;;;;;;5025506;28;25059;-69
2022/04/26 04:15:34;;;;;;;10.32;5.63;;;8.60;92.40;;;;;;5010836;28;24808;-68
2022/04/26 04:18:00;;;;;;;10.23;5.32;;;8.70;93.40;;;;;;5008037;28;25094;-68
2022/04/26 04:20:25;;;;;;;11.52;6.55;;;8.70;94.60;;;;;;5006062;28;25119;-68
2022/04/26 04:22:53;;;;;;;16.30;6.63;;;8.60;96.70;;;;;;5005084;28;25099;-69
2022/04/26 04:25:20;;;;;;;16.92;6.95;;;8.70;97.90;;;;;;5007246;28;25082;-68
2022/04/26 04:27:45;;;;;;;13.38;6.82;;;8.70;98.80;;;;;;5021536;28;25047;-67
2022/04/26 04:30:11;;;;;;;11.25;7.32;;;8.70;99.90;;;;;;5003980;28;25047;-68
2022/04/26 04:32:37;;;;;;;16.15;8.10;;;8.60;99.90;;;;;;5006951;28;25067;-66
2022/04/26 04:35:04;;;;;;;10.68;7.53;;;8.60;99.90;;;;;;5006376;28;25080;-68
2022/04/26 04:37:29;;;;;;;20.98;8.07;;;8.70;99.90;;;;;;5003380;28;25061;-69
2022/04/26 04:39:55;;;;;;;17.27;8.20;;;8.70;99.90;;;;;;5001533;28;25051;-71
2022/04/26 04:42:21;;;;;;;16.95;7.90;;;8.60;99.90;;;;;;5002881;28;25075;-67
2022/04/26 04:44:47;;;;;;;21.40;8.18;;;8.60;99.90;;;;;;5000903;28;25065;-69
2022/04/26 04:47:12;;;;;;;12.18;7.97;;;8.60;99.90;;;;;;5000957;28;25066;-69
2022/04/26 04:49:38;;;;;;;12.88;7.50;;;8.60;99.90;;;;;;5002190;28;25081;-70
2022/04/26 04:52:04;;;;;;;16.20;7.68;;;8.50;99.90;;;;;;5004129;28;25059;-68
2022/04/26 04:54:29;;;;;;;11.75;7.28;;;8.60;99.90;;;;;;5003628;28;25076;-71
2022/04/26 04:56:55;;;;;;;14.65;7.30;;;8.60;99.90;;;;;;5004507;28;25075;-67
2022/04/26 04:59:20;;;;;;;16.10;7.25;;;8.60;99.90;;;;;;5004566;28;25056;-68
2022/04/26 05:01:46;;;;;;;10.70;7.45;;;8.50;99.90;;;;;;5005579;28;25066;-69
2022/04/26 05:04:11;;;;;;;14.18;8.02;;;8.60;99.90;;;;;;5004404;28;25060;-69
2022/04/26 05:06:37;;;;;;;12.93;7.47;;;8.60;99.90;;;;;;5003903;28;25095;-68
2022/04/26 05:09:02;;;;;;;13.68;7.93;;;8.60;99.90;;;;;;5004831;28;25139;-67
2022/04/26 05:11:28;;;;;;;14.07;8.02;;;8.60;99.90;;;;;;5005982;28;25166;-70
2022/04/26 05:13:54;;;;;;;11.57;6.75;;;8.60;99.90;;;;;;5004383;28;25065;-70
2022/04/26 05:16:19;;;;;;;15.90;7.50;;;8.60;99.90;;;;;;5004262;28;25146;-69
2022/04/26 05:18:45;;;;;;;16.50;7.40;;;8.60;99.90;;;;;;5001897;28;25075;-70
2022/04/26 05:21:13;;;;;;;15.63;8.10;;;8.60;99.90;;;;;;5003660;28;25079;-71
2022/04/26 05:26:23;;;;;;;15.55;8.25;;;8.50;99.90;;;;;;5004398;28;25057;-69
2022/04/26 05:28:49;;;;;;;13.07;8.05;;;8.50;99.90;;;;;;5001950;28;25074;-69
2022/04/26 05:31:15;;;;;;;17.10;8.43;;;8.60;99.90;;;;;;5003506;28;25065;-69
2022/04/26 05:33:40;;;;;;;14.07;7.93;;;8.60;99.90;;;;;;5000908;28;25056;-70
2022/04/26 05:36:06;;;;;;;18.10;7.57;;;8.60;99.90;;;;;;5003720;28;25127;-69
2022/04/26 05:38:31;;;;;;;17.77;8.10;;;8.60;99.90;;;;;;5003073;28;25112;-68
2022/04/26 05:40:57;;;;;;;27.52;8.45;;;8.50;99.90;;;;;;5005402;28;25060;-69
2022/04/26 05:43:23;;;;;;;28.80;10.38;;;8.50;99.90;;;;;;5004762;28;25052;-69
2022/04/26 05:45:48;;;;;;;20.85;7.22;;;8.60;99.90;;;;;;5004385;28;25071;-71
2022/04/26 05:48:14;;;;;;;16.17;7.65;;;8.60;99.90;;;;;;5006438;28;25056;-68
2022/04/26 05:50:41;;;;;;;21.70;8.15;;;8.60;99.90;;;;;;5004943;28;25163;-69
2022/04/26 05:53:07;;;;;;;24.60;9.07;;;8.60;99.90;;;;;;5026751;28;25062;-68
2022/04/26 05:55:32;;;;;;;20.38;7.95;;;8.60;99.90;;;;;;5027854;28;25106;-70
2022/04/26 05:57:58;;;;;;;12.80;7.15;;;8.60;99.90;;;;;;5010355;28;25065;-70
2022/04/26 06:00:24;;;;;;;20.65;7.78;;;8.50;99.90;;;;;;5007630;28;25139;-69
2022/04/26 06:02:49;;;;;;;19.60;8.55;;;8.50;99.90;;;;;;5006004;28;25067;-70
2022/04/26 06:05:15;;;;;;;14.68;7.53;;;8.60;99.90;;;;;;5005919;28;25114;-71
2022/04/26 06:07:41;;;;;;;16.23;7.47;;;8.50;99.90;;;;;;5006554;28;25154;-72
2022/04/26 06:10:07;;;;;;;18.17;7.97;;;8.50;99.90;;;;;;5006503;28;25064;-71
2022/04/26 06:12:33;;;;;;;20.38;8.38;;;8.50;99.90;;;;;;5005703;28;25073;-70
2022/04/26 06:14:59;;;;;;;17.27;7.55;;;8.50;99.90;;;;;;5004582;28;25075;-69
2022/04/26 06:17:25;;;;;;;21.58;8.13;;;8.50;99.90;;;;;;5007096;28;25070;-69
2022/04/26 06:19:51;;;;;;;21.58;8.38;;;8.60;99.90;;;;;;5009840;28;25103;-69
2022/04/26 06:22:17;;;;;;;20.17;7.97;;;8.60;99.90;;;;;;5010878;28;25076;-70
2022/04/26 06:24:42;;;;;;;13.02;7.05;;;8.60;99.90;;;;;;5010087;28;25058;-72
2022/04/26 06:27:08;;;;;;;23.80;8.82;;;8.60;99.90;;;;;;5010096;28;25061;-69
2022/04/26 06:29:34;;;;;;;17.55;7.85;;;8.60;99.90;;;;;;5009350;28;25061;-72
2022/04/26 06:32:02;;;;;;;19.83;7.63;;;8.70;99.90;;;;;;5009363;28;25137;-70
2022/04/26 06:34:28;;;;;;;16.52;7.78;;;8.70;99.90;;;;;;5007913;28;25076;-72
2022/04/26 06:36:53;;;;;;;17.85;8.07;;;8.80;99.90;;;;;;5009423;28;25066;-71
2022/04/26 06:39:19;;;;;;;16.60;7.82;;;8.80;99.90;;;;;;5009458;28;25136;-70
2022/04/26 06:41:44;;;;;;;33.10;9.45;;;8.80;99.90;;;;;;5009034;28;25098;-69
2022/04/26 06:44:10;;;;;;;20.83;8.32;;;8.70;99.90;;;;;;5009096;28;25071;-68
2022/04/26 06:46:36;;;;;;;21.40;7.90;;;8.70;99.90;;;;;;5010064;28;25094;-68
2022/04/26 06:49:03;;;;;;;19.63;8.48;;;8.70;99.90;;;;;;5009165;28;25193;-69
2022/04/26 06:51:34;;;;;;;18.25;7.82;;;8.70;99.90;;;;;;5009601;28;25133;-69
2022/04/26 06:53:59;;;;;;;19.33;8.70;;;8.80;99.90;;;;;;5009287;28;25066;-69
2022/04/26 06:56:25;;;;;;;21.02;8.45;;;8.80;99.90;;;;;;5009843;28;25053;-68
2022/04/26 06:58:50;;;;;;;22.38;8.55;;;8.70;99.90;;;;;;5009245;28;25082;-68
2022/04/26 07:01:16;;;;;;;25.02;7.72;;;8.70;99.90;;;;;;5009359;28;25061;-70
2022/04/26 07:03:41;;;;;;;12.55;7.70;;;8.70;99.90;;;;;;5009801;28;25107;-69
2022/04/26 07:06:07;;;;;;;18.98;7.78;;;8.70;99.90;;;;;;5008445;28;25093;-69
2022/04/26 07:08:33;;;;;;;15.90;7.82;;;8.70;99.90;;;;;;5008718;28;25148;-70
2022/04/26 07:10:58;;;;;;;22.88;7.53;;;8.70;99.40;;;;;;5008544;28;25057;-69
2022/04/26 07:13:24;;;;;;;14.48;7.25;;;8.80;99.90;;;;;;5006551;28;25156;-69
2022/04/26 07:15:49;;;;;;;19.45;8.55;;;8.80;99.10;;;;;;5007899;28;25067;-69
2022/04/26 07:18:15;;;;;;;15.77;7.80;;;8.80;98.70;;;;;;5007754;28;25101;-69
2022/04/26 07:20:44;;;;;;;16.55;7.38;;;8.90;98.60;;;;;;5007089;28;25062;-72
2022/04/26 07:23:10;;;;;;;16.00;7.25;;;9.00;97.20;;;;;;5008070;28;25052;-68
2022/04/26 07:25:35;;;;;;;18.60;7.68;;;9.10;97.60;;;;;;5008211;28;25077;-70
2022/04/26 07:28:01;;;;;;;15.85;7.05;;;9.10;95.40;;;;;;5007443;28;25108;-70
2022/04/26 07:30:34;;;;;;;17.38;7.03;;;9.20;94.80;;;;;;5005900;28;25115;-71
2022/04/26 07:35:48;;;;;;;17.25;7.28;;;9.20;94.30;;;;;;5009315;28;25074;-68
2022/04/26 07:38:14;;;;;;;15.95;6.75;;;9.20;92.80;;;;;;5008766;28;25072;-71
2022/04/26 07:40:39;;;;;;;19.75;6.70;;;9.20;93.00;;;;;;5009039;28;25172;-71
2022/04/26 07:43:05;;;;;;;12.32;5.97;;;9.20;93.00;;;;;;5009043;28;25090;-70
2022/04/26 07:45:31;;;;;;;14.18;6.43;;;9.20;92.20;;;;;;5008900;28;25071;-68
2022/04/26 07:47:59;;;;;;;18.08;5.85;;;9.20;90.70;;;;;;5008325;28;25096;-68
2022/04/26 07:50:25;;;;;;;15.68;7.15;;;9.20;91.90;;;;;;5008177;28;25075;-70
2022/04/26 07:52:51;;;;;;;11.07;6.43;;;9.40;91.20;;;;;;5023318;28;25052;-70
2022/04/26 07:55:16;;;;;;;16.23;6.10;;;9.50;87.70;;;;;;5007973;28;25139;-68
2022/04/26 07:57:42;;;;;;;8.93;5.57;;;9.60;89.50;;;;;;5008397;28;25071;-67
2022/04/26 08:00:08;;;;;;;13.07;5.68;;;9.60;83.80;;;;;;5009494;28;25067;-68
2022/04/26 08:02:35;;;;;;;16.50;5.50;;;10.00;82.90;;;;;;5010744;28;25049;-70
2022/04/26 08:05:01;;;;;;;13.23;5.10;;;10.30;74.20;;;;;;5011820;28;25111;-70
2022/04/26 08:07:28;;;;;;;17.77;6.03;;;10.50;69.20;;;;;;5032550;28;25111;-69
2022/04/26 08:09:55;;;;;;;16.70;5.30;;;10.60;66.10;;;;;;5037009;28;25091;-71
2022/04/26 08:12:20;;;;;;;14.88;4.72;;;10.60;64.80;;;;;;5036199;28;25067;-70
2022/04/26 08:14:46;;;;;;;15.60;5.20;;;10.80;63.40;;;;;;5035093;28;25072;-73
2022/04/26 08:17:14;;;;;;;12.23;3.83;;;11.30;57.10;;;;;;5031830;28;25112;-69
2022/04/26 08:19:39;;;;;;;12.02;4.68;;;11.70;53.30;;;;;;5028889;28;25114;-70
2022/04/26 08:22:05;;;;;;;15.30;4.75;;;11.80;48.50;;;;;;5023903;28;25058;-67
2022/04/26 08:27:25;;;;;;;16.33;4.80;;;11.90;40.80;;;;;;5008498;28;25162;-69
2022/04/26 08:29:55;;;;;;;12.43;4.35;;;12.20;41.70;;;;;;5008774;28;25062;-69
2022/04/26 08:32:22;;;;;;;9.60;4.35;;;12.10;39.10;;;;;;5010304;28;25068;-73
2022/04/26 08:34:48;;;;;;;10.00;5.57;;;12.20;38.00;;;;;;5015184;28;25065;-72
2022/04/26 08:37:17;;;;;;;6.60;4.07;;;12.10;37.70;;;;;;5032217;28;25065;-70
2022/04/26 08:39:42;;;;;;;11.80;4.25;;;11.90;38.50;;;;;;5014505;28;25128;-71
2022/04/26 08:42:08;;;;;;;14.18;4.20;;;12.00;36.20;;;;;;5022012;28;25150;-69
2022/04/26 08:44:34;;;;;;;8.15;3.85;;;12.10;37.00;;;;;;5007157;28;25105;-69
2022/04/26 08:52:48;;;;;;;14.68;4.10;;;12.10;30.00;;;;;;5005992;28;25168;-70
2022/04/26 08:55:14;;;;;;;14.02;4.55;;;12.10;31.80;;;;;;5006035;28;25056;-70
2022/04/26 08:57:40;;;;;;;10.45;4.90;;;12.50;30.80;;;;;;5006269;28;25109;-68
2022/04/26 09:00:07;;;;;;;8.35;4.82;;;12.20;30.60;;;;;;5005467;28;25102;-70
2022/04/26 09:02:33;;;;;;;14.63;4.93;;;11.90;31.80;;;;;;5006424;28;25167;-69
2022/04/26 09:05:12;;;;;;;15.52;4.68;;;11.80;32.70;;;;;;5005496;28;25084;-67
2022/04/26 09:07:39;;;;;;;12.40;4.45;;;12.10;30.60;;;;;;5006266;28;25061;-69
2022/04/26 09:10:12;;;;;;;15.38;3.85;;;12.10;29.00;;;;;;5006291;28;25073;-69
2022/04/26 09:13:04;;;;;;;10.77;4.03;;;12.40;28.00;;;;;;5006762;28;25091;-68
2022/04/26 09:15:36;;;;;;;16.48;3.42;;;12.30;24.00;;;;;;5005369;28;25105;-71
2022/04/26 09:18:17;;;;;;;13.63;3.70;;;12.20;23.70;;;;;;5006295;28;25058;-69
2022/04/26 09:20:44;;;;;;;9.45;3.55;;;12.50;22.40;;;;;;5004241;28;25049;-71
2022/04/26 09:23:16;;;;;;;8.80;3.55;;;12.70;21.60;;;;;;5005631;28;25052;-69
2022/04/26 09:25:43;;;;;;;6.20;2.78;;;12.40;18.30;;;;;;5005587;28;25076;-68
2022/04/26 09:28:09;;;;;;;10.30;3.53;;;12.50;17.50;;;;;;5006110;28;25107;-68
2022/04/26 09:30:36;;;;;;;6.22;3.00;;;12.60;16.10;;;;;;5005906;28;25071;-69
2022/04/26 09:33:01;;;;;;;10.98;3.63;;;12.50;13.90;;;;;;5005942;28;25082;-69
2022/04/26 09:35:29;;;;;;;7.22;3.10;;;12.80;14.00;;;;;;5014964;28;25068;-68
2022/04/26 09:37:55;;;;;;;7.22;3.00;;;12.90;12.50;;;;;;5017706;28;25070;-69
2022/04/26 09:40:21;;;;;;;6.43;3.03;;;13.00;11.70;;;;;;5013579;28;25123;-69
2022/04/26 09:42:50;;;;;;;5.63;3.70;;;13.20;16.00;;;;;;5014646;28;25086;-70
2022/04/26 09:45:16;;;;;;;11.82;4.28;;;12.60;16.30;;;;;;5014556;28;25051;-71
2022/04/26 09:47:43;;;;;;;14.05;4.00;;;12.20;16.10;;;;;;5010379;28;25072;-69
2022/04/26 09:50:16;;;;;;;9.05;3.45;;;12.20;18.30;;;;;;5012214;28;25064;-68
2022/04/26 09:52:42;;;;;;;7.75;3.35;;;12.50;16.50;;;;;;5011955;28;25077;-67
2022/04/26 09:55:10;;;;;;;6.45;3.13;;;12.70;15.70;;;;;;5011268;28;25150;-66
2022/04/26 09:57:38;;;;;;;8.18;3.15;;;12.90;15.20;;;;;;5013198;28;25104;-69
2022/04/26 10:00:09;;;;;;;7.03;3.17;;;13.20;11.80;;;;;;5006641;28;25102;-67
2022/04/26 10:02:36;;;;;;;6.80;2.88;;;13.30;9.60;;;;;;5004921;28;25051;-68
2022/04/26 10:05:04;;;;;;;8.82;3.50;;;13.50;5.70;;;;;;5005832;28;25157;-70
2022/04/26 10:07:36;;;;;;;8.05;2.72;;;13.10;6.50;;;;;;5005151;28;25079;-66
2022/04/26 10:10:06;;;;;;;5.85;2.50;;;13.40;6.90;;;;;;5004867;28;25159;-69
2022/04/26 10:12:33;;;;;;;5.97;2.50;;;13.50;4.00;;;;;;5005909;28;25050;-72
2022/04/26 10:15:01;;;;;;;6.47;2.70;;;13.70;3.20;;;;;;5006103;28;25509;-71
2022/04/26 10:17:28;;;;;;;5.65;2.85;;;13.40;2.60;;;;;;5010468;28;25081;-72
2022/04/26 10:19:54;;;;;;;6.28;3.05;;;13.80;4.90;;;;;;5022931;28;25053;-68
2022/04/26 10:22:52;;;;;;;9.73;3.20;;;14.00;6.60;;;;;;5030573;28;25049;-69
2022/04/26 10:25:21;;;;;;;8.85;2.85;;;14.20;1.00;;;;;;5021453;28;25048;-69
2022/04/26 10:28:28;;;;;;;6.28;2.80;;;14.00;1.80;;;;;;5022773;28;25065;-68
2022/04/26 10:30:55;;;;;;;6.57;3.47;;;14.10;3.60;;;;;;5019471;28;25056;-69
2022/04/26 10:33:38;;;;;;;6.15;3.60;;;13.70;7.20;;;;;;5020156;28;25094;-71
2022/04/26 10:36:22;;;;;;;;;;;13.60;7.50;;;;;;5020487;28;25092;-70
2022/04/26 10:39:07;;;;;;;6.15;3.55;;;13.30;6.40;;;;;;5020149;28;24067;-68
2022/04/26 10:41:38;;;;;;;8.32;4.13;;;12.50;8.90;;;;;;5021136;28;25065;-68
2022/04/26 10:44:12;;;;;;;7.20;3.30;;;12.40;9.60;;;;;;5017024;28;25086;-68
2022/04/26 10:46:39;;;;;;;8.13;4.03;;;12.70;10.40;;;;;;5017838;28;25078;-68
2022/04/26 10:49:33;;;;;;;8.82;3.53;;;13.10;8.90;;;;;;5020360;28;25061;-69
2022/04/26 10:52:23;;;;;;;8.50;3.85;;;13.70;8.20;;;;;;5018047;28;25052;-68
2022/04/26 10:57:23;;;;;;;4.57;2.90;;;14.10;4.10;;;;;;5016295;28;25091;-70
2022/04/26 10:59:59;;;;;;;8.68;2.92;;;14.00;1.00;;;;;;5007431;28;25098;-68
2022/04/26 11:02:28;;;;;;;5.22;2.65;;;14.10;1.00;;;;;;5006650;28;25044;-68
2022/04/26 11:05:05;;;;;;;4.00;2.80;;;14.70;1.00;;;;;;5009061;28;25115;-69
2022/04/26 11:07:31;;;;;;;4.63;2.88;;;14.10;1.00;;;;;;5009551;28;25065;-68
2022/04/26 11:09:58;;;;;;;6.88;3.28;;;14.60;1.00;;;;;;5010504;28;25168;-69
2022/04/26 11:12:26;;;;;;;6.97;2.85;;;14.80;1.00;;;;;;5009123;28;25073;-68
2022/04/26 11:14:55;;;;;;;5.72;3.13;;;14.70;1.00;;;;;;5008738;28;25070;-69
2022/04/26 11:17:22;;;;;;;9.52;3.50;;;15.30;1.00;;;;;;5008856;28;25070;-67
2022/04/26 11:20:01;;;;;;;12.15;3.58;;;15.30;1.00;;;;;;5006886;28;25098;-70
2022/04/26 11:22:28;;;;;;;4.63;3.53;;;15.10;1.00;;;;;;5008419;28;25094;-69
2022/04/26 11:28:00;;;;;;;7.97;4.00;;;13.50;1.00;;;;;;5009030;28;25091;-70
2022/04/26 11:30:35;;;;;;;11.15;4.50;;;13.30;1.80;;;;;;5009484;28;25086;-68
2022/04/26 11:33:24;;;;;;;8.23;4.05;;;13.30;1.70;;;;;;5009787;28;25101;-66
2022/04/26 11:36:00;;;;;;;7.32;3.45;;;13.20;3.80;;;;;;5007727;28;25069;-67
2022/04/26 11:38:27;;;;;;;16.20;3.75;;;13.50;3.30;;;;;;5006891;28;25166;-68
2022/04/26 11:40:54;;;;;;;8.25;3.45;;;14.20;1.00;;;;;;5009056;28;25075;-69
2022/04/26 11:43:22;;;;;;;5.75;3.85;;;14.40;1.00;;;;;;5007263;28;25057;-70
2022/04/26 11:45:53;;;;;;;5.72;3.42;;;14.60;1.00;;;;;;5008197;28;25061;-69
2022/04/26 11:48:24;;;;;;;8.35;5.18;;;14.60;1.00;;;;;;5006846;28;25050;-68
2022/04/26 11:50:52;;;;;;;6.80;3.67;;;15.00;1.00;;;;;;5007370;28;25087;-67
2022/04/26 11:53:19;;;;;;;6.78;3.45;;;15.10;1.00;;;;;;5007372;28;25054;-69
2022/04/26 11:55:52;;;;;;;5.78;3.70;;;15.20;1.00;;;;;;5009136;28;25122;-67
2022/04/26 11:58:19;;;;;;;8.45;3.42;;;14.10;1.00;;;;;;5008588;28;25063;-67
2022/04/26 12:00:56;;;;;;;6.88;3.45;;;13.70;1.00;;;;;;5007949;28;25070;-68
2022/04/26 12:03:24;;;;;;;5.53;3.15;;;14.30;1.00;;;;;;5007972;28;25057;-67
2022/04/26 12:05:54;;;;;;;5.35;3.10;;;14.30;1.00;;;;;;5007663;28;25120;-70
2022/04/26 12:08:21;;;;;;;6.80;3.50;;;14.40;1.00;;;;;;5006513;28;25080;-70
2022/04/26 12:10:48;;;;;;;6.13;3.38;;;14.70;1.00;;;;;;5009373;28;25090;-70
2022/04/26 12:13:14;;;;;;;4.22;2.92;;;15.20;1.00;;;;;;5006485;28;25067;-69
2022/04/26 12:15:40;;;;;;;6.95;2.63;;;15.30;1.00;;;;;;5007291;28;25093;-69
2022/04/26 12:18:13;;;;;;;5.43;3.08;;;15.30;1.00;;;;;;5008502;28;25094;-69
2022/04/26 12:21:00;;;;;;;5.78;3.30;;;15.30;1.00;;;;;;5007600;28;25058;-69
2022/04/26 12:23:27;;;;;;;10.90;3.25;;;14.90;1.00;;;;;;5007251;28;25184;-70
2022/04/26 12:26:04;;;;;;;5.78;3.28;;;15.00;1.00;;;;;;5005932;28;25161;-71
2022/04/26 12:28:30;;;;;;;4.25;3.17;;;14.90;1.00;;;;;;5008998;28;25088;-70
2022/04/26 12:30:57;;;;;;;13.23;3.25;;;14.90;1.00;;;;;;5008531;28;25076;-68
2022/04/26 12:33:36;;;;;;;12.00;3.22;;;15.10;1.00;;;;;;5006982;28;25153;-68
2022/04/26 12:36:04;;;;;;;6.80;2.90;;;15.50;1.00;;;;;;5005082;28;25068;-68
2022/04/26 12:38:30;;;;;;;5.57;3.08;;;16.20;1.00;;;;;;5006954;28;25062;-69
2022/04/26 12:41:06;;;;;;;6.55;2.60;;;15.90;1.00;;;;;;5017045;28;25066;-71
2022/04/26 12:43:33;;;;;;;4.75;3.10;;;15.60;1.00;;;;;;5017347;28;25065;-70
2022/04/26 12:46:02;;;;;;;6.25;3.05;;;15.70;1.00;;;;;;5009211;28;25071;-68
2022/04/26 12:51:25;;;;;;;3.60;3.30;;;15.70;1.00;;;;;;5008498;28;25067;-71
2022/04/26 12:54:08;;;;;;;8.52;3.55;;;15.10;1.00;;;;;;5006558;28;25131;-69
2022/04/26 12:56:34;;;;;;;8.25;4.07;;;14.70;1.00;;;;;;5033545;28;25065;-71
2022/04/26 12:58:59;;;;;;;6.38;2.90;;;14.20;1.00;;;;;;5032440;28;25090;-70
2022/04/26 13:01:25;;;;;;;6.57;4.30;;;14.00;1.00;;;;;;5030048;28;25083;-72
2022/04/26 13:03:50;;;;;;;8.02;4.38;;;13.50;1.00;;;;;;5027460;28;25064;-72
2022/04/26 13:06:17;;;;;;;9.93;3.60;;;13.50;1.00;;;;;;5031406;28;25066;-71
2022/04/26 13:08:45;;;;;;;8.93;3.40;;;13.60;1.00;;;;;;5031384;28;25063;-70
2022/04/26 13:11:12;;;;;;;6.05;3.80;;;13.80;1.00;;;;;;5011481;28;25097;-67
2022/04/26 13:13:39;;;;;;;12.50;3.83;;;13.50;1.00;;;;;;5007440;28;25073;-70
2022/04/26 13:16:06;;;;;;;8.43;3.55;;;13.70;1.00;;;;;;5007173;28;25085;-68
2022/04/26 13:18:32;;;;;;;6.68;3.58;;;13.80;1.00;;;;;;5007041;28;25009;-68
2022/04/26 13:20:58;;;;;;;5.35;3.63;;;13.60;1.00;;;;;;5008313;28;25159;-69
2022/04/26 13:23:25;;;;;;;5.50;3.63;;;13.60;1.00;;;;;;5006974;28;25065;-69
2022/04/26 13:25:52;;;;;;;7.93;3.78;;;13.70;1.00;;;;;;5006770;28;25041;-70
2022/04/26 13:28:18;;;;;;;6.95;3.88;;;13.50;1.00;;;;;;5006027;28;25095;-69
2022/04/26 13:30:45;;;;;;;9.65;4.55;;;13.60;1.00;;;;;;5006756;28;25078;-66
2022/04/26 13:33:11;;;;;;;7.90;4.30;;;13.60;1.00;;;;;;5006125;28;25076;-68
2022/04/26 13:35:39;;;;;;;7.72;4.15;;;13.50;1.10;;;;;;5005725;28;25067;-70
2022/04/26 13:38:12;;;;;;;6.03;3.72;;;13.60;1.00;;;;;;5006001;28;25126;-70
2022/04/26 13:40:40;;;;;;;9.60;3.88;;;13.70;1.10;;;;;;5006206;28;25140;-68
2022/04/26 13:43:07;;;;;;;7.07;3.88;;;14.10;1.00;;;;;;5006205;28;25091;-67
2022/04/26 13:45:33;;;;;;;8.65;4.10;;;13.80;1.00;;;;;;5005887;28;25078;-69
2022/04/26 13:48:09;;;;;;;8.23;3.65;;;13.40;1.00;;;;;;5005501;28;25101;-68
2022/04/26 13:50:35;;;;;;;5.90;4.05;;;13.40;1.10;;;;;;5005911;28;25048;-70
2022/04/26 13:53:01;;;;;;;9.30;3.67;;;13.60;1.00;;;;;;5007180;28;25049;-68
2022/04/26 13:55:27;;;;;;;9.80;3.95;;;13.60;1.70;;;;;;5006303;28;25096;-69
2022/04/26 13:57:56;;;;;;;9.50;4.15;;;13.90;1.00;;;;;;5006564;28;25104;-73
2022/04/26 14:00:22;;;;;;;7.25;3.67;;;13.70;1.00;;;;;;5006210;28;25159;-68
2022/04/26 14:02:48;;;;;;;12.23;4.20;;;13.60;1.10;;;;;;5006464;28;25062;-67
2022/04/26 14:05:15;;;;;;;10.25;3.45;;;13.30;2.90;;;;;;5005442;28;25048;-68
2022/04/26 14:07:41;;;;;;;7.15;3.90;;;13.40;2.80;;;;;;5007094;28;25054;-69
2022/04/26 14:10:08;;;;;;;10.65;4.03;;;13.40;2.70;;;;;;5009727;28;25070;-68
2022/04/26 14:12:35;;;;;;;5.22;3.72;;;13.40;2.70;;;;;;5007969;28;25066;-67
2022/04/26 14:23:13;;;;;;;8.48;3.03;;;13.30;1.60;;;;;;5007813;28;25056;-69
2022/04/26 14:25:39;;;;;;;6.90;3.80;;;13.30;2.00;;;;;;5007325;28;25062;-69
2022/04/26 14:28:05;;;;;;;7.18;3.20;;;13.00;2.30;;;;;;5007048;28;25079;-70
2022/04/26 14:30:30;;;;;;;5.63;3.30;;;13.20;2.90;;;;;;5008542;28;25166;-68
2022/04/26 14:32:56;;;;;;;6.43;3.10;;;13.20;2.80;;;;;;5009222;28;25056;-70
2022/04/26 14:35:22;;;;;;;8.82;4.35;;;13.30;2.20;;;;;;5007517;28;25085;-70
2022/04/26 14:37:49;;;;;;;6.55;3.25;;;13.10;3.20;;;;;;5005851;28;25113;-67
2022/04/26 14:40:14;;;;;;;8.00;3.25;;;13.10;4.20;;;;;;5009655;28;25094;-70
2022/04/26 14:42:45;;;;;;;9.98;3.45;;;13.30;3.40;;;;;;5010301;28;25140;-69
2022/04/26 14:45:10;;;;;;;8.35;3.70;;;13.50;3.90;;;;;;5025335;28;25055;-70
2022/04/26 14:47:36;;;;;;;5.45;3.40;;;13.30;1.60;;;;;;5010493;28;25075;-72
2022/04/26 14:50:04;;;;;;;13.25;3.97;;;13.20;1.10;;;;;;5010868;28;25139;-72
2022/04/26 14:52:31;;;;;;;5.85;3.40;;;13.00;1.70;;;;;;5010489;28;25153;-70
2022/04/26 14:54:57;;;;;;;9.50;3.58;;;13.40;1.80;;;;;;5010018;28;25103;-69
2022/04/26 14:57:23;;;;;;;8.05;3.80;;;13.20;1.00;;;;;;5010446;28;25077;-71
2022/04/26 14:59:48;;;;;;;5.25;3.42;;;13.10;1.00;;;;;;5010663;28;25072;-69
2022/04/26 15:02:18;;;;;;;4.30;3.35;;;12.90;1.50;;;;;;5011002;28;25058;-69
2022/04/26 15:04:45;;;;;;;8.73;3.58;;;12.90;1.40;;;;;;5009619;28;25052;-69
2022/04/26 15:07:11;;;;;;;5.30;3.22;;;13.00;1.60;;;;;;5009922;28;25072;-70
2022/04/26 15:09:42;;;;;;;5.50;2.83;;;12.90;1.00;;;;;;5009746;28;25050;-69
2022/04/26 15:17:38;;;;;;;4.50;3.30;;;13.10;1.00;;;;;;5010285;28;25056;-69
2022/04/26 15:20:04;;;;;;;18.05;3.92;;;12.70;1.10;;;;;;5009960;28;25111;-69
2022/04/26 15:22:30;;;;;;;8.68;3.25;;;12.70;1.00;;;;;;5009229;28;25066;-69
2022/04/26 15:24:55;;;;;;;8.57;3.50;;;12.70;1.10;;;;;;5009690;28;25046;-69
2022/04/26 15:27:21;;;;;;;5.55;3.25;;;12.90;1.20;;;;;;5010788;28;25068;-73
2022/04/26 15:29:49;;;;;;;5.53;3.38;;;12.70;1.40;;;;;;5009711;28;25066;-69
2022/04/26 15:32:14;;;;;;;3.72;2.95;;;12.50;1.00;;;;;;5009899;28;25106;-69
2022/04/26 15:34:40;;;;;;;5.03;3.05;;;12.70;1.20;;;;;;5009445;28;25175;-70
2022/04/26 15:37:07;;;;;;;4.97;3.20;;;12.70;2.00;;;;;;5010060;28;25116;-71
2022/04/26 15:39:33;;;;;;;6.60;3.63;;;12.60;2.30;;;;;;5010281;28;25067;-69
2022/04/26 15:41:59;;;;;;;8.45;4.18;;;12.40;2.30;;;;;;5011801;28;25071;-70
2022/04/26 15:44:25;;;;;;;7.93;3.70;;;12.30;2.70;;;;;;5015578;28;25071;-69
2022/04/26 15:46:54;;;;;;;4.13;3.17;;;12.30;3.40;;;;;;5028238;28;25068;-67
2022/04/26 15:49:20;;;;;;;5.45;2.85;;;12.50;2.70;;;;;;5031487;28;25069;-69
2022/04/26 15:51:47;;;;;;;6.50;3.35;;;12.40;1.60;;;;;;5034154;28;25056;-69
2022/04/26 15:54:14;;;;;;;4.95;3.13;;;12.40;1.00;;;;;;5036411;28;25082;-70
2022/04/26 15:56:41;;;;;;;7.30;3.28;;;12.30;1.00;;;;;;5035076;28;25047;-69
2022/04/26 15:59:08;;;;;;;10.35;3.47;;;12.20;1.00;;;;;;5033903;28;25157;-68
2022/04/26 16:01:34;;;;;;;6.43;3.35;;;12.30;1.70;;;;;;5027752;28;25077;-70
2022/04/26 16:04:00;;;;;;;6.40;2.88;;;12.40;1.90;;;;;;5021892;28;25094;-70
2022/04/26 16:06:26;;;;;;;6.28;3.53;;;12.60;2.30;;;;;;5025495;28;25054;-69
2022/04/26 16:08:51;;;;;;;6.85;3.35;;;12.40;3.40;;;;;;5030199;28;25070;-69
2022/04/26 16:22:16;;;;;;;4.40;3.00;;;12.20;4.60;;;;;;5038175;28;25071;-69
2022/04/26 16:24:41;;;;;;;8.50;3.60;;;12.10;5.50;;;;;;5024533;28;25081;-70
2022/04/26 16:27:08;;;;;;;6.07;3.45;;;12.10;5.50;;;;;;5022882;28;25061;-71
2022/04/26 16:29:34;;;;;;;6.07;3.10;;;12.10;5.80;;;;;;5025541;28;25086;-71
2022/04/26 16:32:00;;;;;;;11.75;3.20;;;12.00;6.20;;;;;;5026026;28;25056;-67
2022/04/26 16:34:25;;;;;;;4.32;3.30;;;11.90;6.30;;;;;;5027577;28;25084;-69
2022/04/26 16:36:51;;;;;;;6.55;3.40;;;11.80;6.00;;;;;;5024850;28;25076;-70
2022/04/26 16:39:17;;;;;;;5.43;3.22;;;11.90;7.00;;;;;;5026815;28;25104;-70
2022/04/26 16:41:43;;;;;;;5.28;2.97;;;11.90;7.50;;;;;;5027026;28;25053;-71
2022/04/26 16:44:08;;;;;;;4.97;3.42;;;12.00;7.60;;;;;;5026038;28;25100;-71
2022/04/26 16:46:35;;;;;;;7.22;3.25;;;11.80;7.60;;;;;;5026702;28;25059;-69
2022/04/26 16:49:02;;;;;;;9.38;3.47;;;11.80;7.90;;;;;;5023571;28;25074;-70
2022/04/26 16:51:30;;;;;;;10.27;3.60;;;11.90;8.70;;;;;;5025296;28;25071;-67
2022/04/26 16:53:56;;;;;;;6.72;2.97;;;11.80;8.00;;;;;;5021756;28;25082;-69
2022/04/26 16:56:22;;;;;;;5.22;2.92;;;11.80;8.60;;;;;;5021388;28;25052;-68
2022/04/26 16:58:47;;;;;;;5.93;2.78;;;11.90;7.60;;;;;;5020398;28;25071;-69
2022/04/26 17:01:13;;;;;;;5.90;3.00;;;11.70;8.30;;;;;;5015250;28;24824;-70
2022/04/26 17:03:38;;;;;;;10.38;4.05;;;11.80;8.90;;;;;;5016332;28;25077;-69
2022/04/26 17:06:04;;;;;;;9.23;3.13;;;11.60;10.50;;;;;;5015575;28;25094;-69
2022/04/26 17:08:30;;;;;;;9.65;4.47;;;11.60;11.70;;;;;;5011546;28;25082;-67
2022/04/26 17:11:41;;;;;;;10.15;3.95;;;11.70;11.20;;;;;;5017775;28;25095;-69
2022/04/26 17:13:42;;;;;;;7.80;4.03;;;11.50;11.50;;;;;;5015708;28;25185;-69
2022/04/26 17:16:08;;;;;;;10.48;4.90;;;11.40;11.80;;;;;;5015367;28;25062;-68